Main page
METAR-TAF:

METAR-TAF

Airports :

Red Wing Regional Airport

Red Wing, Minnesota, United States

latitude: 44-35-25N, longitude: 092-29-10W, elevation: 784 ft

Current weather observation

The report was made 15 minutes ago, at 16:35 UTC
Wind 6 mph from the Northwest
Temperature 66°F
Humidity 60%
Pressure 29.93 in. Hg
Visibility: 10 miles
Overcast at a height of 9000 ft

METAR: KRGK 281635Z AUTO 32005KT 10SM OVC090 19/11 A2993 RMK AO2

Time: 11:50 (16:50 UTC)


TAF: missing

Weather observations and forecasts of more than 4000 airports (METAR and TAF reports).

The available stations are represented by yellow and red dots on the map.

Hover mouse over dot to see the name of the station.

Then click to see weather observations and forecasts.

To change the map : click on the green buttons with a black cross to zoom in, on the green button with a dash to zoom out, or on the green arrows for adjacent maps.


METAR-TAF: